METAR AND TAF INFORMATION
METAR FOR HESC
ADDS - METARS form results

(0224 UTC 21 September 2018)
Data provider http://aviationweather.gov/metar/data/
 
METAR text: HESC 210200Z 00000KT CAVOK 18/08 Q1020 NOSIG
Conditions at: HESC (ST CATHERINE , EG) observed 0200 UTC 21 September 2018
Temperature: 18.0°C (64°F)
Dewpoint: 8.0°C (46°F) [RH = 52%]
Pressure (altimeter): 30.12 inches Hg (1020.0 mb)
Winds: calm
Visibility: 6 or more miles (10+ km)
Ceiling: ceiling and visibility are OK
Clouds: unknown
Weather: no significant weather observed at this time

Forecast for: HESC (ST CATHERINE , EG)
Text: TAF HESC 202300Z 2100/2206 33012KT CAVOK
Forecast period: 0000 UTC 21 September 2018 to 0600 UTC 22 September 2018
Forecast type: FROM: standard forecast or significant change
Winds: from the NNW (330 degrees) at 14 MPH (12 knots; 6.2 m/s)
Visibility: 6 or more miles 10+ km)
Ceiling: unknown
Clouds: missing
Weather: NSW  (no significant weather)

 AIRPORT MAP

 RUNWAY INFORMATION
Runway 17 Runway length 6939 ft Runway width 118 ft
Runway elevation 4299 ft Runway displaced threshold 0 ft Runway heading 172
Runway 35 Runway length 6939 ft Runway width 118 ft
Runway elevation 4368 ft Runway displaced threshold 0 ft Runway heading 352

 AIRPORT FREQUENCIES
Type RDO Name Cathrine R Frequency 579 MHZ
Type TWR Name TWR Frequency 122.8 MHZ

 AIRPORT NEAR NAVIGATION AIDS
Type NDB Name St Catherine Frequency 262 KHZ



Powered by Virtual Airlines Manager [v2.6.2]